sensor_id;sensor_type;location;lat;lon;timestamp;temperature;humidity
3980;DHT22;2004;52.452;13.120;2023-05-10T00:05:18;12.60;74.80
3980;DHT22;2004;52.452;13.120;2023-05-10T00:13:08;12.60;75.00
3980;DHT22;2004;52.452;13.120;2023-05-10T00:20:59;12.50;74.80
3980;DHT22;2004;52.452;13.120;2023-05-10T00:28:49;12.50;76.00
3980;DHT22;2004;52.452;13.120;2023-05-10T00:36:40;12.40;76.30
3980;DHT22;2004;52.452;13.120;2023-05-10T00:44:31;12.30;76.70
3980;DHT22;2004;52.452;13.120;2023-05-10T00:52:21;12.30;76.80
3980;DHT22;2004;52.452;13.120;2023-05-10T01:00:14;12.20;77.20
3980;DHT22;2004;52.452;13.120;2023-05-10T01:08:08;12.10;77.50
3980;DHT22;2004;52.452;13.120;2023-05-10T01:16:00;12.00;77.80
3980;DHT22;2004;52.452;13.120;2023-05-10T01:24:38;12.00;78.20
3980;DHT22;2004;52.452;13.120;2023-05-10T01:32:32;11.90;79.00
3980;DHT22;2004;52.452;13.120;2023-05-10T01:40:35;11.80;78.70
3980;DHT22;2004;52.452;13.120;2023-05-10T01:48:28;11.70;79.00
3980;DHT22;2004;52.452;13.120;2023-05-10T01:56:20;11.70;78.90
3980;DHT22;2004;52.452;13.120;2023-05-10T02:04:15;11.60;79.30
3980;DHT22;2004;52.452;13.120;2023-05-10T02:12:07;11.60;79.20
3980;DHT22;2004;52.452;13.120;2023-05-10T02:19:59;11.50;79.80
3980;DHT22;2004;52.452;13.120;2023-05-10T02:27:54;11.40;80.50
3980;DHT22;2004;52.452;13.120;2023-05-10T02:35:46;11.40;80.10
3980;DHT22;2004;52.452;13.120;2023-05-10T02:43:37;11.30;80.80
3980;DHT22;2004;52.452;13.120;2023-05-10T02:51:32;11.20;81.20
3980;DHT22;2004;52.452;13.120;2023-05-10T02:59:24;11.10;82.50
3980;DHT22;2004;52.452;13.120;2023-05-10T03:07:14;11.00;83.20
3980;DHT22;2004;52.452;13.120;2023-05-10T03:15:15;10.90;83.20
3980;DHT22;2004;52.452;13.120;2023-05-10T03:23:13;10.80;83.70
3980;DHT22;2004;52.452;13.120;2023-05-10T03:31:09;10.70;84.40
3980;DHT22;2004;52.452;13.120;2023-05-10T03:39:00;10.70;85.80
3980;DHT22;2004;52.452;13.120;2023-05-10T03:46:50;10.60;86.00
3980;DHT22;2004;52.452;13.120;2023-05-10T03:54:41;10.60;87.10
3980;DHT22;2004;52.452;13.120;2023-05-10T04:02:31;10.50;87.70
3980;DHT22;2004;52.452;13.120;2023-05-10T04:10:22;10.50;88.00
3980;DHT22;2004;52.452;13.120;2023-05-10T04:18:12;10.60;87.70
3980;DHT22;2004;52.452;13.120;2023-05-10T04:26:03;10.70;87.90
3980;DHT22;2004;52.452;13.120;2023-05-10T04:33:54;10.90;87.20
3980;DHT22;2004;52.452;13.120;2023-05-10T04:41:44;11.00;86.90
3980;DHT22;2004;52.452;13.120;2023-05-10T04:49:35;11.20;86.70
3980;DHT22;2004;52.452;13.120;2023-05-10T04:57:25;11.30;86.50
3980;DHT22;2004;52.452;13.120;2023-05-10T05:05:16;11.40;85.10
3980;DHT22;2004;52.452;13.120;2023-05-10T05:13:06;11.60;85.20
3980;DHT22;2004;52.452;13.120;2023-05-10T05:20:57;11.60;83.20
3980;DHT22;2004;52.452;13.120;2023-05-10T05:28:47;11.60;83.90
3980;DHT22;2004;52.452;13.120;2023-05-10T05:36:39;11.70;82.60
3980;DHT22;2004;52.452;13.120;2023-05-10T05:44:29;11.90;83.70
3980;DHT22;2004;52.452;13.120;2023-05-10T05:52:20;12.30;82.90
3980;DHT22;2004;52.452;13.120;2023-05-10T06:00:11;12.70;81.50
3980;DHT22;2004;52.452;13.120;2023-05-10T06:08:02;13.00;81.40
3980;DHT22;2004;52.452;13.120;2023-05-10T06:15:53;13.30;80.00
3980;DHT22;2004;52.452;13.120;2023-05-10T06:23:43;13.40;79.70
3980;DHT22;2004;52.452;13.120;2023-05-10T06:31:34;13.50;77.20
3980;DHT22;2004;52.452;13.120;2023-05-10T06:39:24;13.70;78.10
3980;DHT22;2004;52.452;13.120;2023-05-10T06:47:15;13.80;78.30
3980;DHT22;2004;52.452;13.120;2023-05-10T06:55:08;13.90;77.50
3980;DHT22;2004;52.452;13.120;2023-05-10T07:02:59;14.00;77.10
3980;DHT22;2004;52.452;13.120;2023-05-10T07:10:51;14.20;77.50
3980;DHT22;2004;52.452;13.120;2023-05-10T07:18:41;14.30;76.60
3980;DHT22;2004;52.452;13.120;2023-05-10T07:26:32;14.50;76.70
3980;DHT22;2004;52.452;13.120;2023-05-10T07:34:23;14.60;76.00
3980;DHT22;2004;52.452;13.120;2023-05-10T07:42:13;14.80;74.50
3980;DHT22;2004;52.452;13.120;2023-05-10T07:50:04;15.10;74.90
3980;DHT22;2004;52.452;13.120;2023-05-10T07:57:55;15.40;74.50
3980;DHT22;2004;52.452;13.120;2023-05-10T08:05:46;15.50;73.30
3980;DHT22;2004;52.452;13.120;2023-05-10T08:13:37;15.80;73.70
3980;DHT22;2004;52.452;13.120;2023-05-10T08:21:27;16.00;72.90
3980;DHT22;2004;52.452;13.120;2023-05-10T08:29:18;16.20;72.60
3980;DHT22;2004;52.452;13.120;2023-05-10T08:37:10;16.50;72.30
3980;DHT22;2004;52.452;13.120;2023-05-10T08:45:03;16.80;72.40
3980;DHT22;2004;52.452;13.120;2023-05-10T08:52:59;17.00;71.70
3980;DHT22;2004;52.452;13.120;2023-05-10T09:00:50;17.30;70.80
3980;DHT22;2004;52.452;13.120;2023-05-10T09:08:42;17.50;69.70
3980;DHT22;2004;52.452;13.120;2023-05-10T09:16:33;17.60;69.60
3980;DHT22;2004;52.452;13.120;2023-05-10T09:24:26;17.70;69.40
3980;DHT22;2004;52.452;13.120;2023-05-10T09:32:19;17.70;68.70
3980;DHT22;2004;52.452;13.120;2023-05-10T09:40:17;17.80;68.40
3980;DHT22;2004;52.452;13.120;2023-05-10T09:48:08;17.90;68.60
3980;DHT22;2004;52.452;13.120;2023-05-10T09:55:58;18.00;68.80
3980;DHT22;2004;52.452;13.120;2023-05-10T10:03:49;18.20;68.30
3980;DHT22;2004;52.452;13.120;2023-05-10T10:11:41;18.40;67.70
3980;DHT22;2004;52.452;13.120;2023-05-10T10:19:33;18.50;67.00
3980;DHT22;2004;52.452;13.120;2023-05-10T10:27:43;18.60;66.80
3980;DHT22;2004;52.452;13.120;2023-05-10T10:35:37;18.80;66.40
3980;DHT22;2004;52.452;13.120;2023-05-10T10:43:28;19.00;64.10
3980;DHT22;2004;52.452;13.120;2023-05-10T10:51:20;19.10;65.00
3980;DHT22;2004;52.452;13.120;2023-05-10T10:59:11;19.30;65.40
3980;DHT22;2004;52.452;13.120;2023-05-10T11:07:17;19.60;62.30
3980;DHT22;2004;52.452;13.120;2023-05-10T11:15:09;19.80;62.80
3980;DHT22;2004;52.452;13.120;2023-05-10T11:23:11;20.20;62.60
3980;DHT22;2004;52.452;13.120;2023-05-10T11:31:03;20.70;63.20
3980;DHT22;2004;52.452;13.120;2023-05-10T11:38:55;21.00;60.20
3980;DHT22;2004;52.452;13.120;2023-05-10T11:46:46;21.30;58.40
3980;DHT22;2004;52.452;13.120;2023-05-10T11:54:43;21.50;57.80
3980;DHT22;2004;52.452;13.120;2023-05-10T12:02:34;21.50;58.00
3980;DHT22;2004;52.452;13.120;2023-05-10T12:10:26;21.60;57.70
3980;DHT22;2004;52.452;13.120;2023-05-10T12:18:23;21.80;55.70
3980;DHT22;2004;52.452;13.120;2023-05-10T12:26:14;22.00;56.80
3980;DHT22;2004;52.452;13.120;2023-05-10T12:34:06;22.10;55.40
3980;DHT22;2004;52.452;13.120;2023-05-10T12:41:59;22.30;55.30
3980;DHT22;2004;52.452;13.120;2023-05-10T12:49:50;22.50;56.00
3980;DHT22;2004;52.452;13.120;2023-05-10T12:57:41;22.60;55.60
3980;DHT22;2004;52.452;13.120;2023-05-10T13:05:33;22.50;54.50
3980;DHT22;2004;52.452;13.120;2023-05-10T13:13:24;22.60;55.20
3980;DHT22;2004;52.452;13.120;2023-05-10T13:21:14;22.50;52.80
3980;DHT22;2004;52.452;13.120;2023-05-10T13:29:06;22.60;54.80
3980;DHT22;2004;52.452;13.120;2023-05-10T13:36:56;22.70;54.90
3980;DHT22;2004;52.452;13.120;2023-05-10T13:44:47;22.70;55.00
3980;DHT22;2004;52.452;13.120;2023-05-10T13:52:38;22.40;54.00
3980;DHT22;2004;52.452;13.120;2023-05-10T14:00:28;22.20;54.60
3980;DHT22;2004;52.452;13.120;2023-05-10T14:08:19;22.10;54.30
3980;DHT22;2004;52.452;13.120;2023-05-10T14:16:10;22.00;53.70
3980;DHT22;2004;52.452;13.120;2023-05-10T14:24:03;21.90;54.00
3980;DHT22;2004;52.452;13.120;2023-05-10T14:31:54;21.90;55.50
3980;DHT22;2004;52.452;13.120;2023-05-10T14:39:46;21.80;55.80
3980;DHT22;2004;52.452;13.120;2023-05-10T14:47:37;21.70;55.70
3980;DHT22;2004;52.452;13.120;2023-05-10T14:55:28;21.70;54.90
3980;DHT22;2004;52.452;13.120;2023-05-10T15:03:18;21.60;55.90
3980;DHT22;2004;52.452;13.120;2023-05-10T15:11:09;21.50;55.70
3980;DHT22;2004;52.452;13.120;2023-05-10T15:18:59;21.40;55.60
3980;DHT22;2004;52.452;13.120;2023-05-10T15:26:50;21.40;55.40
3980;DHT22;2004;52.452;13.120;2023-05-10T15:34:41;21.40;57.60
3980;DHT22;2004;52.452;13.120;2023-05-10T15:42:32;21.20;72.10
3980;DHT22;2004;52.452;13.120;2023-05-10T15:50:23;20.80;75.20
3980;DHT22;2004;52.452;13.120;2023-05-10T15:58:13;20.60;77.40
3980;DHT22;2004;52.452;13.120;2023-05-10T16:06:04;20.30;79.20
3980;DHT22;2004;52.452;13.120;2023-05-10T16:13:54;19.90;80.60
3980;DHT22;2004;52.452;13.120;2023-05-10T16:21:46;19.80;82.50
3980;DHT22;2004;52.452;13.120;2023-05-10T16:29:36;19.70;83.50
3980;DHT22;2004;52.452;13.120;2023-05-10T16:37:27;19.60;84.70
3980;DHT22;2004;52.452;13.120;2023-05-10T16:45:18;19.40;85.90
3980;DHT22;2004;52.452;13.120;2023-05-10T16:53:08;19.30;87.00
3980;DHT22;2004;52.452;13.120;2023-05-10T17:01:00;19.20;88.90
3980;DHT22;2004;52.452;13.120;2023-05-10T17:08:51;19.00;89.90
3980;DHT22;2004;52.452;13.120;2023-05-10T17:16:41;18.90;90.30
3980;DHT22;2004;52.452;13.120;2023-05-10T17:24:32;18.70;91.00
3980;DHT22;2004;52.452;13.120;2023-05-10T17:32:23;18.60;91.40
3980;DHT22;2004;52.452;13.120;2023-05-10T17:40:14;18.50;92.10
3980;DHT22;2004;52.452;13.120;2023-05-10T17:48:04;18.40;93.10
3980;DHT22;2004;52.452;13.120;2023-05-10T17:55:55;18.30;93.40
3980;DHT22;2004;52.452;13.120;2023-05-10T18:03:51;18.20;94.70
3980;DHT22;2004;52.452;13.120;2023-05-10T18:11:42;18.10;95.60
3980;DHT22;2004;52.452;13.120;2023-05-10T18:19:32;18.00;96.80
3980;DHT22;2004;52.452;13.120;2023-05-10T18:27:23;18.00;97.80
3980;DHT22;2004;52.452;13.120;2023-05-10T18:35:14;17.90;99.00
3980;DHT22;2004;52.452;13.120;2023-05-10T18:43:05;17.70;99.90
3980;DHT22;2004;52.452;13.120;2023-05-10T18:50:55;17.60;99.90
3980;DHT22;2004;52.452;13.120;2023-05-10T18:58:46;17.50;99.90
3980;DHT22;2004;52.452;13.120;2023-05-10T19:06:36;17.30;99.90
3980;DHT22;2004;52.452;13.120;2023-05-10T19:14:27;17.20;99.90
3980;DHT22;2004;52.452;13.120;2023-05-10T19:22:18;17.10;99.90
3980;DHT22;2004;52.452;13.120;2023-05-10T19:30:09;16.90;99.90
3980;DHT22;2004;52.452;13.120;2023-05-10T19:37:59;16.70;99.90
3980;DHT22;2004;52.452;13.120;2023-05-10T19:45:50;16.60;99.90
3980;DHT22;2004;52.452;13.120;2023-05-10T19:53:40;16.50;99.90
3980;DHT22;2004;52.452;13.120;2023-05-10T20:01:33;16.40;99.90
3980;DHT22;2004;52.452;13.120;2023-05-10T20:09:26;16.30;99.90
3980;DHT22;2004;52.452;13.120;2023-05-10T20:17:17;16.30;99.90
3980;DHT22;2004;52.452;13.120;2023-05-10T20:25:08;16.20;99.90
3980;DHT22;2004;52.452;13.120;2023-05-10T20:32:59;16.20;99.90
3980;DHT22;2004;52.452;13.120;2023-05-10T20:40:49;16.20;99.90
3980;DHT22;2004;52.452;13.120;2023-05-10T20:48:41;16.10;99.90
3980;DHT22;2004;52.452;13.120;2023-05-10T20:56:31;16.10;99.90
3980;DHT22;2004;52.452;13.120;2023-05-10T21:04:23;16.10;99.90
3980;DHT22;2004;52.452;13.120;2023-05-10T21:12:15;16.10;99.90
3980;DHT22;2004;52.452;13.120;2023-05-10T21:20:06;16.10;99.90
3980;DHT22;2004;52.452;13.120;2023-05-10T21:27:57;16.00;99.90
3980;DHT22;2004;52.452;13.120;2023-05-10T21:35:48;16.00;99.90
3980;DHT22;2004;52.452;13.120;2023-05-10T21:43:38;16.00;99.90
3980;DHT22;2004;52.452;13.120;2023-05-10T21:51:29;15.90;99.90
3980;DHT22;2004;52.452;13.120;2023-05-10T21:59:19;15.90;99.90
3980;DHT22;2004;52.452;13.120;2023-05-10T22:07:10;15.90;99.90
3980;DHT22;2004;52.452;13.120;2023-05-10T22:15:01;15.90;99.90
3980;DHT22;2004;52.452;13.120;2023-05-10T22:22:53;15.90;99.90
3980;DHT22;2004;52.452;13.120;2023-05-10T22:30:44;15.80;99.90
3980;DHT22;2004;52.452;13.120;2023-05-10T22:38:35;15.80;99.90
3980;DHT22;2004;52.452;13.120;2023-05-10T22:46:26;15.70;99.90
3980;DHT22;2004;52.452;13.120;2023-05-10T22:54:18;15.70;99.90
3980;DHT22;2004;52.452;13.120;2023-05-10T23:02:09;15.60;99.90
3980;DHT22;2004;52.452;13.120;2023-05-10T23:10:00;15.50;99.90
3980;DHT22;2004;52.452;13.120;2023-05-10T23:17:51;15.40;99.90
3980;DHT22;2004;52.452;13.120;2023-05-10T23:25:41;15.30;99.90
3980;DHT22;2004;52.452;13.120;2023-05-10T23:33:32;15.20;99.90
3980;DHT22;2004;52.452;13.120;2023-05-10T23:41:22;15.00;99.90
3980;DHT22;2004;52.452;13.120;2023-05-10T23:49:16;14.90;99.90
3980;DHT22;2004;52.452;13.120;2023-05-10T23:57:07;14.70;99.90
